sensor_id;sensor_type;location;lat;lon;timestamp;P1;durP1;ratioP1;P2;durP2;ratioP2
54428;SDS011;40337;52.978;6.310;2023-04-15T00:00:27;7.88;;;4.80;;
54428;SDS011;40337;52.978;6.310;2023-04-15T00:02:53;9.70;;;5.03;;
54428;SDS011;40337;52.978;6.310;2023-04-15T00:05:19;8.00;;;5.07;;
54428;SDS011;40337;52.978;6.310;2023-04-15T00:07:45;9.75;;;5.07;;
54428;SDS011;40337;52.978;6.310;2023-04-15T00:10:11;11.57;;;5.40;;
54428;SDS011;40337;52.978;6.310;2023-04-15T00:12:38;8.13;;;4.82;;
54428;SDS011;40337;52.978;6.310;2023-04-15T00:15:04;9.90;;;5.10;;
54428;SDS011;40337;52.978;6.310;2023-04-15T00:17:30;10.25;;;4.90;;
54428;SDS011;40337;52.978;6.310;2023-04-15T00:19:56;8.90;;;5.25;;
54428;SDS011;40337;52.978;6.310;2023-04-15T00:22:23;9.70;;;5.15;;
54428;SDS011;40337;52.978;6.310;2023-04-15T00:24:49;9.60;;;4.90;;
54428;SDS011;40337;52.978;6.310;2023-04-15T00:27:16;10.40;;;5.30;;
54428;SDS011;40337;52.978;6.310;2023-04-15T00:29:41;7.72;;;5.32;;
54428;SDS011;40337;52.978;6.310;2023-04-15T00:32:07;8.23;;;5.55;;
54428;SDS011;40337;52.978;6.310;2023-04-15T00:34:33;11.00;;;5.57;;
54428;SDS011;40337;52.978;6.310;2023-04-15T00:36:58;8.20;;;5.20;;
54428;SDS011;40337;52.978;6.310;2023-04-15T00:39:24;8.43;;;5.00;;
54428;SDS011;40337;52.978;6.310;2023-04-15T00:41:50;8.75;;;5.45;;
54428;SDS011;40337;52.978;6.310;2023-04-15T00:44:16;9.85;;;5.50;;
54428;SDS011;40337;52.978;6.310;2023-04-15T00:46:42;8.80;;;5.43;;
54428;SDS011;40337;52.978;6.310;2023-04-15T00:49:09;10.73;;;5.97;;
54428;SDS011;40337;52.978;6.310;2023-04-15T00:51:35;9.93;;;5.90;;
54428;SDS011;40337;52.978;6.310;2023-04-15T00:54:04;9.82;;;5.75;;
54428;SDS011;40337;52.978;6.310;2023-04-15T00:56:30;8.45;;;5.25;;
54428;SDS011;40337;52.978;6.310;2023-04-15T00:59:00;7.95;;;5.32;;
54428;SDS011;40337;52.978;6.310;2023-04-15T01:01:26;8.52;;;5.57;;
54428;SDS011;40337;52.978;6.310;2023-04-15T01:03:54;9.15;;;6.18;;
54428;SDS011;40337;52.978;6.310;2023-04-15T01:06:21;9.52;;;6.30;;
54428;SDS011;40337;52.978;6.310;2023-04-15T01:08:47;9.45;;;5.63;;
54428;SDS011;40337;52.978;6.310;2023-04-15T01:11:13;9.13;;;5.90;;
54428;SDS011;40337;52.978;6.310;2023-04-15T01:13:39;9.95;;;5.70;;
54428;SDS011;40337;52.978;6.310;2023-04-15T01:16:06;9.55;;;5.75;;
54428;SDS011;40337;52.978;6.310;2023-04-15T01:18:33;9.80;;;6.35;;
54428;SDS011;40337;52.978;6.310;2023-04-15T01:20:59;8.48;;;6.03;;
54428;SDS011;40337;52.978;6.310;2023-04-15T01:23:26;10.32;;;6.15;;
54428;SDS011;40337;52.978;6.310;2023-04-15T01:25:52;8.15;;;5.75;;
54428;SDS011;40337;52.978;6.310;2023-04-15T01:28:18;9.15;;;6.50;;
54428;SDS011;40337;52.978;6.310;2023-04-15T01:30:44;11.40;;;6.32;;
54428;SDS011;40337;52.978;6.310;2023-04-15T01:33:10;10.85;;;6.45;;
54428;SDS011;40337;52.978;6.310;2023-04-15T01:35:36;10.40;;;6.70;;
54428;SDS011;40337;52.978;6.310;2023-04-15T01:38:04;9.63;;;6.65;;
54428;SDS011;40337;52.978;6.310;2023-04-15T01:40:31;10.18;;;6.97;;
54428;SDS011;40337;52.978;6.310;2023-04-15T01:42:57;9.15;;;6.25;;
54428;SDS011;40337;52.978;6.310;2023-04-15T01:45:23;9.68;;;7.20;;
54428;SDS011;40337;52.978;6.310;2023-04-15T01:47:49;10.77;;;6.90;;
54428;SDS011;40337;52.978;6.310;2023-04-15T01:50:14;11.02;;;6.90;;
54428;SDS011;40337;52.978;6.310;2023-04-15T01:52:40;10.50;;;7.75;;
54428;SDS011;40337;52.978;6.310;2023-04-15T01:55:06;10.00;;;7.35;;
54428;SDS011;40337;52.978;6.310;2023-04-15T01:57:33;9.75;;;7.28;;
54428;SDS011;40337;52.978;6.310;2023-04-15T01:59:58;9.57;;;7.38;;
54428;SDS011;40337;52.978;6.310;2023-04-15T02:02:24;9.45;;;6.65;;
54428;SDS011;40337;52.978;6.310;2023-04-15T02:04:50;9.52;;;7.25;;
54428;SDS011;40337;52.978;6.310;2023-04-15T02:07:16;11.52;;;7.57;;
54428;SDS011;40337;52.978;6.310;2023-04-15T02:09:41;9.80;;;7.43;;
54428;SDS011;40337;52.978;6.310;2023-04-15T02:12:08;10.90;;;7.55;;
54428;SDS011;40337;52.978;6.310;2023-04-15T02:14:33;11.07;;;7.70;;
54428;SDS011;40337;52.978;6.310;2023-04-15T02:16:59;10.48;;;7.38;;
54428;SDS011;40337;52.978;6.310;2023-04-15T02:19:31;9.95;;;7.50;;
54428;SDS011;40337;52.978;6.310;2023-04-15T02:21:57;10.48;;;7.03;;
54428;SDS011;40337;52.978;6.310;2023-04-15T02:24:22;11.50;;;7.95;;
54428;SDS011;40337;52.978;6.310;2023-04-15T02:26:48;9.82;;;6.95;;
54428;SDS011;40337;52.978;6.310;2023-04-15T02:29:13;9.85;;;7.10;;
54428;SDS011;40337;52.978;6.310;2023-04-15T02:31:39;9.75;;;6.80;;
54428;SDS011;40337;52.978;6.310;2023-04-15T02:34:06;9.68;;;7.60;;
54428;SDS011;40337;52.978;6.310;2023-04-15T02:36:32;10.98;;;8.02;;
54428;SDS011;40337;52.978;6.310;2023-04-15T02:38:58;8.85;;;6.38;;
54428;SDS011;40337;52.978;6.310;2023-04-15T02:41:24;11.68;;;8.52;;
54428;SDS011;40337;52.978;6.310;2023-04-15T02:43:51;11.57;;;7.93;;
54428;SDS011;40337;52.978;6.310;2023-04-15T02:46:17;10.77;;;7.85;;
54428;SDS011;40337;52.978;6.310;2023-04-15T02:48:42;10.07;;;7.60;;
54428;SDS011;40337;52.978;6.310;2023-04-15T02:51:12;11.27;;;7.63;;
54428;SDS011;40337;52.978;6.310;2023-04-15T02:53:38;11.65;;;7.88;;
54428;SDS011;40337;52.978;6.310;2023-04-15T02:56:05;11.25;;;8.02;;
54428;SDS011;40337;52.978;6.310;2023-04-15T02:58:32;10.80;;;8.95;;
54428;SDS011;40337;52.978;6.310;2023-04-15T03:00:58;12.30;;;9.18;;
54428;SDS011;40337;52.978;6.310;2023-04-15T03:03:24;11.00;;;8.02;;
54428;SDS011;40337;52.978;6.310;2023-04-15T03:05:52;10.85;;;8.02;;
54428;SDS011;40337;52.978;6.310;2023-04-15T03:08:17;12.40;;;8.10;;
54428;SDS011;40337;52.978;6.310;2023-04-15T03:10:43;11.80;;;8.57;;
54428;SDS011;40337;52.978;6.310;2023-04-15T03:13:08;11.68;;;8.40;;
54428;SDS011;40337;52.978;6.310;2023-04-15T03:15:34;10.60;;;8.82;;
54428;SDS011;40337;52.978;6.310;2023-04-15T03:18:00;12.45;;;8.00;;
54428;SDS011;40337;52.978;6.310;2023-04-15T03:20:25;10.70;;;7.63;;
54428;SDS011;40337;52.978;6.310;2023-04-15T03:22:51;13.15;;;7.50;;
54428;SDS011;40337;52.978;6.310;2023-04-15T03:25:17;10.30;;;8.27;;
54428;SDS011;40337;52.978;6.310;2023-04-15T03:27:42;10.68;;;8.23;;
54428;SDS011;40337;52.978;6.310;2023-04-15T03:30:08;11.45;;;8.10;;
54428;SDS011;40337;52.978;6.310;2023-04-15T03:32:34;11.48;;;8.52;;
54428;SDS011;40337;52.978;6.310;2023-04-15T03:34:59;9.73;;;7.65;;
54428;SDS011;40337;52.978;6.310;2023-04-15T03:37:25;10.57;;;7.90;;
54428;SDS011;40337;52.978;6.310;2023-04-15T03:39:51;11.93;;;8.32;;
54428;SDS011;40337;52.978;6.310;2023-04-15T03:42:17;11.05;;;8.60;;
54428;SDS011;40337;52.978;6.310;2023-04-15T03:44:42;12.50;;;8.63;;
54428;SDS011;40337;52.978;6.310;2023-04-15T03:47:08;11.80;;;8.30;;
54428;SDS011;40337;52.978;6.310;2023-04-15T03:49:33;11.05;;;8.40;;
54428;SDS011;40337;52.978;6.310;2023-04-15T03:51:59;10.40;;;8.68;;
54428;SDS011;40337;52.978;6.310;2023-04-15T03:54:25;10.43;;;8.65;;
54428;SDS011;40337;52.978;6.310;2023-04-15T03:56:50;11.07;;;8.63;;
54428;SDS011;40337;52.978;6.310;2023-04-15T03:59:16;9.95;;;7.93;;
54428;SDS011;40337;52.978;6.310;2023-04-15T04:01:42;11.68;;;8.98;;
54428;SDS011;40337;52.978;6.310;2023-04-15T04:04:07;9.90;;;7.93;;
54428;SDS011;40337;52.978;6.310;2023-04-15T04:06:33;11.30;;;8.98;;
54428;SDS011;40337;52.978;6.310;2023-04-15T04:08:58;11.40;;;8.75;;
54428;SDS011;40337;52.978;6.310;2023-04-15T04:11:25;11.80;;;9.40;;
54428;SDS011;40337;52.978;6.310;2023-04-15T04:13:52;10.43;;;9.02;;
54428;SDS011;40337;52.978;6.310;2023-04-15T04:16:17;10.50;;;9.13;;
54428;SDS011;40337;52.978;6.310;2023-04-15T04:18:43;12.88;;;10.18;;
54428;SDS011;40337;52.978;6.310;2023-04-15T04:21:09;11.77;;;9.30;;
54428;SDS011;40337;52.978;6.310;2023-04-15T04:23:35;11.00;;;9.30;;
54428;SDS011;40337;52.978;6.310;2023-04-15T04:26:01;10.27;;;9.05;;
54428;SDS011;40337;52.978;6.310;2023-04-15T04:28:26;13.80;;;10.32;;
54428;SDS011;40337;52.978;6.310;2023-04-15T04:30:52;12.43;;;10.10;;
54428;SDS011;40337;52.978;6.310;2023-04-15T04:33:17;11.70;;;9.90;;
54428;SDS011;40337;52.978;6.310;2023-04-15T04:35:43;12.57;;;9.82;;
54428;SDS011;40337;52.978;6.310;2023-04-15T04:38:09;13.57;;;10.50;;
54428;SDS011;40337;52.978;6.310;2023-04-15T04:40:34;12.77;;;10.23;;
54428;SDS011;40337;52.978;6.310;2023-04-15T04:43:00;11.27;;;9.38;;
54428;SDS011;40337;52.978;6.310;2023-04-15T04:45:26;13.35;;;10.77;;
54428;SDS011;40337;52.978;6.310;2023-04-15T04:47:52;12.43;;;10.48;;
54428;SDS011;40337;52.978;6.310;2023-04-15T04:50:17;12.90;;;11.05;;
54428;SDS011;40337;52.978;6.310;2023-04-15T04:52:43;14.35;;;12.10;;
54428;SDS011;40337;52.978;6.310;2023-04-15T04:55:08;13.85;;;10.73;;
54428;SDS011;40337;52.978;6.310;2023-04-15T04:57:34;14.10;;;11.32;;
54428;SDS011;40337;52.978;6.310;2023-04-15T05:00:00;14.18;;;12.40;;
54428;SDS011;40337;52.978;6.310;2023-04-15T05:02:27;17.02;;;12.57;;
54428;SDS011;40337;52.978;6.310;2023-04-15T05:04:52;15.55;;;12.68;;
54428;SDS011;40337;52.978;6.310;2023-04-15T05:07:18;14.77;;;12.25;;
54428;SDS011;40337;52.978;6.310;2023-04-15T05:09:45;14.52;;;12.52;;
54428;SDS011;40337;52.978;6.310;2023-04-15T05:12:10;14.50;;;12.60;;
54428;SDS011;40337;52.978;6.310;2023-04-15T05:14:42;15.18;;;12.88;;
54428;SDS011;40337;52.978;6.310;2023-04-15T05:17:08;15.77;;;13.38;;
54428;SDS011;40337;52.978;6.310;2023-04-15T05:19:33;16.13;;;13.32;;
54428;SDS011;40337;52.978;6.310;2023-04-15T05:21:59;15.20;;;13.60;;
54428;SDS011;40337;52.978;6.310;2023-04-15T05:24:25;17.42;;;15.05;;
54428;SDS011;40337;52.978;6.310;2023-04-15T05:26:51;18.05;;;14.63;;
54428;SDS011;40337;52.978;6.310;2023-04-15T05:29:16;16.95;;;14.93;;
54428;SDS011;40337;52.978;6.310;2023-04-15T05:31:42;18.70;;;16.15;;
54428;SDS011;40337;52.978;6.310;2023-04-15T05:34:08;21.52;;;16.98;;
54428;SDS011;40337;52.978;6.310;2023-04-15T05:36:34;17.13;;;14.82;;
54428;SDS011;40337;52.978;6.310;2023-04-15T05:38:59;19.85;;;16.02;;
54428;SDS011;40337;52.978;6.310;2023-04-15T05:41:25;17.88;;;15.98;;
54428;SDS011;40337;52.978;6.310;2023-04-15T05:43:51;18.77;;;16.23;;
54428;SDS011;40337;52.978;6.310;2023-04-15T05:46:16;20.20;;;16.27;;
54428;SDS011;40337;52.978;6.310;2023-04-15T05:48:42;18.98;;;16.42;;
54428;SDS011;40337;52.978;6.310;2023-04-15T05:51:08;19.33;;;16.05;;
54428;SDS011;40337;52.978;6.310;2023-04-15T05:53:33;20.25;;;16.77;;
54428;SDS011;40337;52.978;6.310;2023-04-15T05:55:59;19.35;;;15.35;;
54428;SDS011;40337;52.978;6.310;2023-04-15T05:58:25;19.02;;;16.05;;
54428;SDS011;40337;52.978;6.310;2023-04-15T06:00:51;17.95;;;15.55;;
54428;SDS011;40337;52.978;6.310;2023-04-15T06:03:16;18.40;;;15.40;;
54428;SDS011;40337;52.978;6.310;2023-04-15T06:05:42;16.98;;;14.98;;
54428;SDS011;40337;52.978;6.310;2023-04-15T06:08:08;15.82;;;14.13;;
54428;SDS011;40337;52.978;6.310;2023-04-15T06:10:35;16.40;;;14.13;;
54428;SDS011;40337;52.978;6.310;2023-04-15T06:13:04;18.23;;;14.98;;
54428;SDS011;40337;52.978;6.310;2023-04-15T06:15:30;15.50;;;13.88;;
54428;SDS011;40337;52.978;6.310;2023-04-15T06:17:56;14.90;;;13.30;;
54428;SDS011;40337;52.978;6.310;2023-04-15T06:20:22;16.58;;;14.40;;
54428;SDS011;40337;52.978;6.310;2023-04-15T06:22:48;17.00;;;14.13;;
54428;SDS011;40337;52.978;6.310;2023-04-15T06:25:13;17.13;;;13.93;;
54428;SDS011;40337;52.978;6.310;2023-04-15T06:27:39;15.57;;;13.43;;
54428;SDS011;40337;52.978;6.310;2023-04-15T06:30:05;16.55;;;14.27;;
54428;SDS011;40337;52.978;6.310;2023-04-15T06:32:32;17.50;;;14.75;;
54428;SDS011;40337;52.978;6.310;2023-04-15T06:34:57;17.05;;;15.25;;
54428;SDS011;40337;52.978;6.310;2023-04-15T06:37:23;17.40;;;15.00;;
54428;SDS011;40337;52.978;6.310;2023-04-15T06:39:48;17.50;;;15.70;;
54428;SDS011;40337;52.978;6.310;2023-04-15T06:42:14;18.08;;;15.75;;
54428;SDS011;40337;52.978;6.310;2023-04-15T06:44:40;18.27;;;16.13;;
54428;SDS011;40337;52.978;6.310;2023-04-15T06:47:06;19.55;;;16.35;;
54428;SDS011;40337;52.978;6.310;2023-04-15T06:49:33;18.00;;;15.70;;
54428;SDS011;40337;52.978;6.310;2023-04-15T06:51:59;18.73;;;15.60;;
54428;SDS011;40337;52.978;6.310;2023-04-15T06:54:24;19.25;;;15.85;;
54428;SDS011;40337;52.978;6.310;2023-04-15T06:56:50;18.73;;;15.82;;
54428;SDS011;40337;52.978;6.310;2023-04-15T06:59:16;16.80;;;14.98;;
54428;SDS011;40337;52.978;6.310;2023-04-15T07:01:42;19.45;;;15.55;;
54428;SDS011;40337;52.978;6.310;2023-04-15T07:04:08;21.08;;;15.88;;
54428;SDS011;40337;52.978;6.310;2023-04-15T07:06:33;18.90;;;15.10;;
54428;SDS011;40337;52.978;6.310;2023-04-15T07:08:59;17.77;;;15.00;;
54428;SDS011;40337;52.978;6.310;2023-04-15T07:11:25;16.90;;;15.10;;
54428;SDS011;40337;52.978;6.310;2023-04-15T07:13:51;16.88;;;13.82;;
54428;SDS011;40337;52.978;6.310;2023-04-15T07:16:17;16.85;;;13.35;;
54428;SDS011;40337;52.978;6.310;2023-04-15T07:18:43;17.80;;;13.82;;
54428;SDS011;40337;52.978;6.310;2023-04-15T07:21:08;17.48;;;14.27;;
54428;SDS011;40337;52.978;6.310;2023-04-15T07:23:34;16.52;;;13.40;;
54428;SDS011;40337;52.978;6.310;2023-04-15T07:25:59;15.38;;;13.68;;
54428;SDS011;40337;52.978;6.310;2023-04-15T07:28:25;16.42;;;13.15;;
54428;SDS011;40337;52.978;6.310;2023-04-15T07:30:51;14.55;;;12.55;;
54428;SDS011;40337;52.978;6.310;2023-04-15T07:33:17;17.05;;;12.75;;
54428;SDS011;40337;52.978;6.310;2023-04-15T07:35:43;14.40;;;11.50;;
54428;SDS011;40337;52.978;6.310;2023-04-15T07:38:09;15.27;;;11.98;;
54428;SDS011;40337;52.978;6.310;2023-04-15T07:40:36;13.93;;;12.27;;
54428;SDS011;40337;52.978;6.310;2023-04-15T07:43:03;13.70;;;11.77;;
54428;SDS011;40337;52.978;6.310;2023-04-15T07:45:29;13.05;;;11.10;;
54428;SDS011;40337;52.978;6.310;2023-04-15T07:47:55;11.98;;;10.55;;
54428;SDS011;40337;52.978;6.310;2023-04-15T07:50:21;13.32;;;10.20;;
54428;SDS011;40337;52.978;6.310;2023-04-15T07:52:47;13.35;;;10.40;;
54428;SDS011;40337;52.978;6.310;2023-04-15T07:55:14;13.57;;;10.15;;
54428;SDS011;40337;52.978;6.310;2023-04-15T07:57:43;11.40;;;10.20;;
54428;SDS011;40337;52.978;6.310;2023-04-15T08:00:09;11.43;;;8.98;;
54428;SDS011;40337;52.978;6.310;2023-04-15T08:02:35;9.68;;;7.50;;
54428;SDS011;40337;52.978;6.310;2023-04-15T08:05:01;9.15;;;6.85;;
54428;SDS011;40337;52.978;6.310;2023-04-15T08:07:28;10.38;;;6.97;;
54428;SDS011;40337;52.978;6.310;2023-04-15T08:09:54;11.52;;;6.78;;
54428;SDS011;40337;52.978;6.310;2023-04-15T08:12:19;7.70;;;5.85;;
54428;SDS011;40337;52.978;6.310;2023-04-15T08:14:45;8.32;;;5.90;;
54428;SDS011;40337;52.978;6.310;2023-04-15T08:17:11;9.85;;;6.03;;
54428;SDS011;40337;52.978;6.310;2023-04-15T08:19:36;9.27;;;5.88;;
54428;SDS011;40337;52.978;6.310;2023-04-15T08:22:02;8.45;;;6.07;;
54428;SDS011;40337;52.978;6.310;2023-04-15T08:24:28;7.55;;;5.70;;
54428;SDS011;40337;52.978;6.310;2023-04-15T08:26:55;7.93;;;6.18;;
54428;SDS011;40337;52.978;6.310;2023-04-15T08:29:21;9.35;;;6.78;;
54428;SDS011;40337;52.978;6.310;2023-04-15T08:31:47;8.93;;;6.70;;
54428;SDS011;40337;52.978;6.310;2023-04-15T08:34:12;8.43;;;6.80;;
54428;SDS011;40337;52.978;6.310;2023-04-15T08:36:39;8.68;;;6.45;;
54428;SDS011;40337;52.978;6.310;2023-04-15T08:39:04;9.38;;;6.70;;
54428;SDS011;40337;52.978;6.310;2023-04-15T08:41:39;8.98;;;6.10;;
54428;SDS011;40337;52.978;6.310;2023-04-15T08:44:11;8.93;;;5.82;;
54428;SDS011;40337;52.978;6.310;2023-04-15T08:46:38;7.13;;;5.43;;
54428;SDS011;40337;52.978;6.310;2023-04-15T08:49:06;8.05;;;6.25;;
54428;SDS011;40337;52.978;6.310;2023-04-15T08:51:34;8.40;;;5.90;;
54428;SDS011;40337;52.978;6.310;2023-04-15T08:54:00;8.60;;;6.47;;
54428;SDS011;40337;52.978;6.310;2023-04-15T08:56:27;9.10;;;6.07;;
54428;SDS011;40337;52.978;6.310;2023-04-15T08:58:56;10.02;;;6.20;;
54428;SDS011;40337;52.978;6.310;2023-04-15T09:01:23;7.68;;;5.50;;
54428;SDS011;40337;52.978;6.310;2023-04-15T09:03:50;10.38;;;5.80;;
54428;SDS011;40337;52.978;6.310;2023-04-15T09:06:16;7.85;;;5.00;;
54428;SDS011;40337;52.978;6.310;2023-04-15T09:08:42;7.10;;;5.22;;
54428;SDS011;40337;52.978;6.310;2023-04-15T09:11:08;9.48;;;5.03;;
54428;SDS011;40337;52.978;6.310;2023-04-15T09:13:34;9.02;;;5.72;;
54428;SDS011;40337;52.978;6.310;2023-04-15T09:16:03;8.25;;;4.97;;
54428;SDS011;40337;52.978;6.310;2023-04-15T09:18:30;9.60;;;3.85;;
54428;SDS011;40337;52.978;6.310;2023-04-15T09:21:10;6.65;;;4.13;;
54428;SDS011;40337;52.978;6.310;2023-04-15T09:23:38;6.80;;;3.72;;
54428;SDS011;40337;52.978;6.310;2023-04-15T09:26:06;4.45;;;3.20;;
54428;SDS011;40337;52.978;6.310;2023-04-15T09:28:32;6.75;;;3.60;;
54428;SDS011;40337;52.978;6.310;2023-04-15T09:31:04;7.47;;;3.92;;
54428;SDS011;40337;52.978;6.310;2023-04-15T09:33:30;5.88;;;3.80;;
54428;SDS011;40337;52.978;6.310;2023-04-15T09:36:00;5.22;;;3.50;;
54428;SDS011;40337;52.978;6.310;2023-04-15T09:38:29;6.32;;;3.97;;
54428;SDS011;40337;52.978;6.310;2023-04-15T09:40:56;6.60;;;3.63;;
54428;SDS011;40337;52.978;6.310;2023-04-15T09:43:25;6.15;;;3.65;;
54428;SDS011;40337;52.978;6.310;2023-04-15T09:46:04;6.38;;;3.90;;
54428;SDS011;40337;52.978;6.310;2023-04-15T09:48:30;8.70;;;4.22;;
54428;SDS011;40337;52.978;6.310;2023-04-15T09:50:59;6.88;;;4.22;;
54428;SDS011;40337;52.978;6.310;2023-04-15T09:53:25;7.32;;;3.67;;
54428;SDS011;40337;52.978;6.310;2023-04-15T09:55:55;7.00;;;3.67;;
54428;SDS011;40337;52.978;6.310;2023-04-15T10:00:49;4.90;;;2.95;;
54428;SDS011;40337;52.978;6.310;2023-04-15T10:03:17;5.03;;;3.05;;
54428;SDS011;40337;52.978;6.310;2023-04-15T10:05:47;4.03;;;2.50;;
54428;SDS011;40337;52.978;6.310;2023-04-15T10:08:15;4.28;;;2.65;;
54428;SDS011;40337;52.978;6.310;2023-04-15T10:10:43;4.28;;;2.60;;
54428;SDS011;40337;52.978;6.310;2023-04-15T10:13:12;6.00;;;2.67;;
54428;SDS011;40337;52.978;6.310;2023-04-15T10:15:39;5.45;;;2.38;;
54428;SDS011;40337;52.978;6.310;2023-04-15T10:18:08;4.22;;;2.00;;
54428;SDS011;40337;52.978;6.310;2023-04-15T10:20:35;5.40;;;2.20;;
54428;SDS011;40337;52.978;6.310;2023-04-15T10:23:01;3.58;;;2.22;;
54428;SDS011;40337;52.978;6.310;2023-04-15T10:25:28;4.72;;;1.90;;
54428;SDS011;40337;52.978;6.310;2023-04-15T10:27:54;3.97;;;1.88;;
54428;SDS011;40337;52.978;6.310;2023-04-15T10:30:21;3.78;;;1.90;;
54428;SDS011;40337;52.978;6.310;2023-04-15T10:32:47;3.53;;;1.80;;
54428;SDS011;40337;52.978;6.310;2023-04-15T10:35:13;5.30;;;1.77;;
54428;SDS011;40337;52.978;6.310;2023-04-15T10:37:39;3.90;;;1.83;;
54428;SDS011;40337;52.978;6.310;2023-04-15T10:40:24;4.07;;;1.70;;
54428;SDS011;40337;52.978;6.310;2023-04-15T10:42:55;3.65;;;1.70;;
54428;SDS011;40337;52.978;6.310;2023-04-15T10:45:23;3.78;;;1.80;;
54428;SDS011;40337;52.978;6.310;2023-04-15T10:47:53;3.08;;;1.60;;
54428;SDS011;40337;52.978;6.310;2023-04-15T10:50:20;2.92;;;1.50;;
54428;SDS011;40337;52.978;6.310;2023-04-15T10:52:48;3.15;;;1.90;;
54428;SDS011;40337;52.978;6.310;2023-04-15T10:55:33;4.32;;;1.90;;
54428;SDS011;40337;52.978;6.310;2023-04-15T10:57:59;3.72;;;2.00;;
54428;SDS011;40337;52.978;6.310;2023-04-15T11:00:30;3.45;;;2.08;;
54428;SDS011;40337;52.978;6.310;2023-04-15T11:06:08;4.40;;;2.00;;
54428;SDS011;40337;52.978;6.310;2023-04-15T11:08:16;3.20;;;1.75;;
54428;SDS011;40337;52.978;6.310;2023-04-15T11:15:45;3.53;;;2.00;;
54428;SDS011;40337;52.978;6.310;2023-04-15T11:18:13;3.50;;;1.98;;
54428;SDS011;40337;52.978;6.310;2023-04-15T11:20:39;4.10;;;2.00;;
54428;SDS011;40337;52.978;6.310;2023-04-15T11:23:06;4.40;;;2.20;;
54428;SDS011;40337;52.978;6.310;2023-04-15T11:25:33;3.20;;;1.88;;
54428;SDS011;40337;52.978;6.310;2023-04-15T11:28:00;5.72;;;2.20;;
54428;SDS011;40337;52.978;6.310;2023-04-15T11:30:27;4.45;;;2.20;;
54428;SDS011;40337;52.978;6.310;2023-04-15T11:32:57;5.00;;;2.00;;
54428;SDS011;40337;52.978;6.310;2023-04-15T11:35:24;4.10;;;2.00;;
54428;SDS011;40337;52.978;6.310;2023-04-15T11:37:49;4.22;;;2.22;;
54428;SDS011;40337;52.978;6.310;2023-04-15T11:40:15;5.35;;;2.20;;
54428;SDS011;40337;52.978;6.310;2023-04-15T11:42:46;3.88;;;2.10;;
54428;SDS011;40337;52.978;6.310;2023-04-15T11:45:14;5.05;;;2.30;;
54428;SDS011;40337;52.978;6.310;2023-04-15T11:47:40;7.00;;;2.28;;
54428;SDS011;40337;52.978;6.310;2023-04-15T11:50:13;4.13;;;2.05;;
54428;SDS011;40337;52.978;6.310;2023-04-15T11:52:40;5.75;;;2.70;;
54428;SDS011;40337;52.978;6.310;2023-04-15T11:55:22;7.47;;;2.50;;
54428;SDS011;40337;52.978;6.310;2023-04-15T12:00:49;6.50;;;2.60;;
54428;SDS011;40337;52.978;6.310;2023-04-15T12:06:03;6.57;;;2.28;;
54428;SDS011;40337;52.978;6.310;2023-04-15T12:08:48;6.00;;;2.30;;
54428;SDS011;40337;52.978;6.310;2023-04-15T12:11:40;4.97;;;2.00;;
54428;SDS011;40337;52.978;6.310;2023-04-15T12:14:12;5.90;;;2.13;;
54428;SDS011;40337;52.978;6.310;2023-04-15T12:16:59;5.78;;;2.30;;
54428;SDS011;40337;52.978;6.310;2023-04-15T12:19:29;5.93;;;2.50;;
54428;SDS011;40337;52.978;6.310;2023-04-15T12:22:17;7.00;;;2.28;;
54428;SDS011;40337;52.978;6.310;2023-04-15T12:24:43;6.20;;;2.10;;
54428;SDS011;40337;52.978;6.310;2023-04-15T12:27:12;5.57;;;1.98;;
54428;SDS011;40337;52.978;6.310;2023-04-15T12:29:40;4.53;;;1.95;;
54428;SDS011;40337;52.978;6.310;2023-04-15T12:32:07;6.10;;;2.13;;
54428;SDS011;40337;52.978;6.310;2023-04-15T12:34:34;6.53;;;2.03;;
54428;SDS011;40337;52.978;6.310;2023-04-15T12:37:02;7.00;;;2.45;;
54428;SDS011;40337;52.978;6.310;2023-04-15T12:39:35;7.68;;;2.30;;
54428;SDS011;40337;52.978;6.310;2023-04-15T12:42:02;9.52;;;2.50;;
54428;SDS011;40337;52.978;6.310;2023-04-15T12:44:29;7.18;;;2.60;;
54428;SDS011;40337;52.978;6.310;2023-04-15T12:46:55;8.60;;;2.47;;
54428;SDS011;40337;52.978;6.310;2023-04-15T12:49:22;7.93;;;2.50;;
54428;SDS011;40337;52.978;6.310;2023-04-15T12:51:49;8.30;;;2.63;;
54428;SDS011;40337;52.978;6.310;2023-04-15T12:54:19;7.55;;;2.50;;
54428;SDS011;40337;52.978;6.310;2023-04-15T12:56:45;8.60;;;2.28;;
54428;SDS011;40337;52.978;6.310;2023-04-15T12:59:11;9.10;;;2.75;;
54428;SDS011;40337;52.978;6.310;2023-04-15T13:01:38;8.55;;;2.28;;
54428;SDS011;40337;52.978;6.310;2023-04-15T13:04:04;7.30;;;2.10;;
54428;SDS011;40337;52.978;6.310;2023-04-15T13:06:30;7.53;;;2.05;;
54428;SDS011;40337;52.978;6.310;2023-04-15T13:08:57;6.53;;;1.90;;
54428;SDS011;40337;52.978;6.310;2023-04-15T13:11:25;6.88;;;2.22;;
54428;SDS011;40337;52.978;6.310;2023-04-15T13:13:51;5.78;;;1.95;;
54428;SDS011;40337;52.978;6.310;2023-04-15T13:16:17;8.80;;;2.00;;
54428;SDS011;40337;52.978;6.310;2023-04-15T13:18:43;8.23;;;2.03;;
54428;SDS011;40337;52.978;6.310;2023-04-15T13:21:10;8.38;;;2.08;;
54428;SDS011;40337;52.978;6.310;2023-04-15T13:23:36;9.35;;;2.10;;
54428;SDS011;40337;52.978;6.310;2023-04-15T13:26:02;7.15;;;2.20;;
54428;SDS011;40337;52.978;6.310;2023-04-15T13:28:28;8.02;;;2.28;;
54428;SDS011;40337;52.978;6.310;2023-04-15T13:30:53;8.50;;;2.35;;
54428;SDS011;40337;52.978;6.310;2023-04-15T13:33:19;6.07;;;1.85;;
54428;SDS011;40337;52.978;6.310;2023-04-15T13:35:44;6.13;;;1.90;;
54428;SDS011;40337;52.978;6.310;2023-04-15T13:38:10;7.63;;;1.90;;
54428;SDS011;40337;52.978;6.310;2023-04-15T13:40:36;7.15;;;2.03;;
54428;SDS011;40337;52.978;6.310;2023-04-15T13:43:01;6.20;;;1.90;;
54428;SDS011;40337;52.978;6.310;2023-04-15T13:45:27;8.25;;;2.03;;
54428;SDS011;40337;52.978;6.310;2023-04-15T13:47:54;7.13;;;2.10;;
54428;SDS011;40337;52.978;6.310;2023-04-15T13:50:20;6.40;;;2.15;;
54428;SDS011;40337;52.978;6.310;2023-04-15T13:52:45;8.05;;;2.08;;
54428;SDS011;40337;52.978;6.310;2023-04-15T13:55:11;6.20;;;1.90;;
54428;SDS011;40337;52.978;6.310;2023-04-15T13:57:37;6.25;;;2.08;;
54428;SDS011;40337;52.978;6.310;2023-04-15T14:00:02;12.45;;;2.45;;
54428;SDS011;40337;52.978;6.310;2023-04-15T14:02:28;6.88;;;2.20;;
54428;SDS011;40337;52.978;6.310;2023-04-15T14:04:54;7.47;;;2.10;;
54428;SDS011;40337;52.978;6.310;2023-04-15T14:07:20;7.25;;;2.10;;
54428;SDS011;40337;52.978;6.310;2023-04-15T14:09:45;8.27;;;2.30;;
54428;SDS011;40337;52.978;6.310;2023-04-15T14:12:12;9.13;;;2.30;;
54428;SDS011;40337;52.978;6.310;2023-04-15T14:14:37;5.72;;;1.95;;
54428;SDS011;40337;52.978;6.310;2023-04-15T14:17:03;10.02;;;2.70;;
54428;SDS011;40337;52.978;6.310;2023-04-15T14:19:29;7.32;;;2.17;;
54428;SDS011;40337;52.978;6.310;2023-04-15T14:21:55;9.57;;;2.30;;
54428;SDS011;40337;52.978;6.310;2023-04-15T14:24:21;8.90;;;2.13;;
54428;SDS011;40337;52.978;6.310;2023-04-15T14:26:47;7.55;;;2.10;;
54428;SDS011;40337;52.978;6.310;2023-04-15T14:29:12;8.00;;;2.30;;
54428;SDS011;40337;52.978;6.310;2023-04-15T14:31:38;6.90;;;2.00;;
54428;SDS011;40337;52.978;6.310;2023-04-15T14:34:04;8.00;;;2.53;;
54428;SDS011;40337;52.978;6.310;2023-04-15T14:36:30;7.40;;;2.22;;
54428;SDS011;40337;52.978;6.310;2023-04-15T14:38:56;6.07;;;2.05;;
54428;SDS011;40337;52.978;6.310;2023-04-15T14:41:22;10.02;;;2.55;;
54428;SDS011;40337;52.978;6.310;2023-04-15T14:43:48;10.23;;;2.20;;
54428;SDS011;40337;52.978;6.310;2023-04-15T14:46:13;7.13;;;2.50;;
54428;SDS011;40337;52.978;6.310;2023-04-15T14:48:39;7.57;;;2.58;;
54428;SDS011;40337;52.978;6.310;2023-04-15T14:51:05;7.00;;;2.13;;